Time;durP1;ratioP1;P1;durP2;ratioP2;P2;SDS_P1;SDS_P2;PMS_P1;PMS_P2;Temp;Humidity;BMP_temperature;BMP_pressure;BME280_temperature;BME280_humidity;BME280_pressure;Samples;Min_cycle;Max_cycle;Signal;HPM_P1;HPM_P2
2022/04/18 00:00:18;;;;;;;49.22;24.25;;;;;;;;;;4765466;30;20047;-61
2022/04/18 00:02:44;;;;;;;54.15;25.63;;;9.00;94.40;;;;;;4765438;30;20067;-61
2022/04/18 00:05:10;;;;;;;51.90;25.88;;;;;;;;;;4765438;30;20313;-61
2022/04/18 00:07:36;;;;;;;55.47;26.52;;;;;;;;;;4765324;30;20044;-61
2022/04/18 00:10:03;;;;;;;53.35;26.15;;;8.80;95.30;;;;;;4765428;30;20036;-61
2022/04/18 00:12:29;;;;;;;60.97;26.67;;;8.80;92.20;;;;;;4765058;30;20348;-61
2022/04/18 00:14:55;;;;;;;59.90;27.75;;;;;;;;;;4765042;30;20039;-61
2022/04/18 00:17:21;;;;;;;52.60;26.70;;;8.80;95.60;;;;;;4749325;30;20080;-62
2022/04/18 00:19:47;;;;;;;54.90;26.20;;;;;;;;;;4764938;30;20047;-61
2022/04/18 00:22:12;;;;;;;53.17;25.40;;;8.40;95.80;;;;;;4764941;30;20326;-62
2022/04/18 00:24:38;;;;;;;46.20;23.35;;;8.90;90.80;;;;;;4765153;30;20043;-61
2022/04/18 00:27:04;;;;;;;47.00;22.50;;;8.70;96.10;;;;;;4765052;30;20336;-61
2022/04/18 00:29:30;;;;;;;37.42;20.60;;;8.70;96.40;;;;;;4749405;30;20108;-61
2022/04/18 00:31:56;;;;;;;38.08;20.80;;;;;;;;;;4748956;30;20333;-61
2022/04/18 00:34:22;;;;;;;38.60;20.48;;;;;;;;;;4764997;30;20043;-62
2022/04/18 00:36:48;;;;;;;40.42;21.10;;;8.10;96.80;;;;;;4749168;30;20075;-62
2022/04/18 00:39:14;;;;;;;41.30;21.35;;;;;;;;;;4764905;30;20039;-61
2022/04/18 00:41:40;;;;;;;40.92;21.67;;;8.10;97.10;;;;;;4764942;30;20075;-61
2022/04/18 00:44:06;;;;;;;45.75;23.00;;;;;;;;;;4764535;30;20036;-61
2022/04/18 00:46:32;;;;;;;45.30;23.73;;;;;;;;;;4764741;30;20044;-61
2022/04/18 00:48:58;;;;;;;47.65;25.35;;;8.90;97.70;;;;;;4764390;30;20120;-61
2022/04/18 00:51:26;;;;;;;52.00;26.25;;;8.40;85.30;;;;;;4764703;30;20044;-61
2022/04/18 00:53:53;;;;;;;54.40;27.45;;;8.40;97.80;;;;;;4764483;30;20040;-61
2022/04/18 00:56:20;;;;;;;54.55;26.85;;;8.30;98.00;;;;;;4764686;30;20047;-61
2022/04/18 00:58:47;;;;;;;65.72;28.60;;;8.00;98.20;;;;;;4764211;30;20097;-61
2022/04/18 01:01:14;;;;;;;59.92;29.13;;;8.00;98.90;;;;;;4763432;30;20069;-61
2022/04/18 01:03:40;;;;;;;62.42;29.15;;;8.30;98.80;;;;;;4764548;30;20048;-61
2022/04/18 01:06:06;;;;;;;59.95;28.88;;;8.20;96.80;;;;;;4764474;30;20153;-61
2022/04/18 01:08:34;;;;;;;55.78;28.63;;;8.20;88.90;;;;;;4764384;30;20052;-61
2022/04/18 01:11:01;;;;;;;61.33;28.77;;;8.10;98.90;;;;;;4764111;30;20036;-61
2022/04/18 01:13:28;;;;;;;57.35;28.23;;;8.40;99.80;;;;;;4764101;30;20044;-61
2022/04/18 01:15:55;;;;;;;59.72;28.35;;;8.50;95.10;;;;;;4764327;30;20245;-61
2022/04/18 01:18:21;;;;;;;52.97;26.35;;;8.10;99.90;;;;;;4764031;30;20056;-61
2022/04/18 01:20:47;;;;;;;53.38;25.20;;;8.20;99.90;;;;;;4764276;30;20076;-61
2022/04/18 01:23:13;;;;;;;43.67;23.23;;;7.90;93.70;;;;;;4764185;30;20044;-61
2022/04/18 01:31:08;;;;;;;37.25;20.48;;;8.40;96.60;;;;;;4764092;30;20086;-61
2022/04/18 01:33:33;;;;;;;31.63;18.35;;;7.80;99.90;;;;;;4764081;30;20035;-61
2022/04/18 01:35:59;;;;;;;28.65;17.20;;;7.50;99.90;;;;;;4763989;30;20036;-62
2022/04/18 01:38:25;;;;;;;34.67;17.42;;;;;;;;;;4763953;30;20124;-61
2022/04/18 01:40:51;;;;;;;28.63;16.67;;;7.60;99.90;;;;;;4763644;30;20048;-61
2022/04/18 01:43:17;;;;;;;26.88;16.10;;;8.00;92.30;;;;;;4763870;30;20074;-61
2022/04/18 01:45:43;;;;;;;26.00;15.75;;;8.20;99.90;;;;;;4764251;30;20050;-61
2022/04/18 01:48:09;;;;;;;28.10;16.45;;;;;;;;;;4763744;30;20068;-61
2022/04/18 01:50:36;;;;;;;24.30;15.57;;;;;;;;;;4763356;30;20063;-61
2022/04/18 01:53:02;;;;;;;24.73;15.30;;;7.70;91.00;;;;;;4763736;30;20218;-61
2022/04/18 01:55:28;;;;;;;24.73;15.63;;;;;;;;;;4763646;30;20032;-61
2022/04/18 01:57:54;;;;;;;27.33;16.10;;;7.70;99.90;;;;;;4763625;30;20266;-61
2022/04/18 02:00:20;;;;;;;29.05;16.80;;;;;;;;;;4763307;30;20040;-61
2022/04/18 02:02:46;;;;;;;23.05;15.80;;;;;;;;;;4747492;30;20233;-61
2022/04/18 02:05:12;;;;;;;25.58;15.63;;;7.50;99.90;;;;;;4763495;30;20044;-61
2022/04/18 02:07:38;;;;;;;22.83;15.10;;;;;;;;;;4763369;30;20346;-61
2022/04/18 02:10:04;;;;;;;27.52;15.20;;;7.50;99.90;;;;;;4763090;30;20313;-61
2022/04/18 02:12:30;;;;;;;21.23;14.15;;;7.70;99.90;;;;;;4763591;30;20043;-61
2022/04/18 02:14:56;;;;;;;25.23;15.05;;;;;;;;;;4763073;30;20106;-61
2022/04/18 02:17:22;;;;;;;22.00;14.18;;;7.20;99.90;;;;;;4747181;30;20052;-61
2022/04/18 02:19:48;;;;;;;24.75;14.75;;;7.50;96.40;;;;;;4763960;30;20035;-61
2022/04/18 02:22:14;;;;;;;22.42;15.27;;;;;;;;;;4763210;30;20337;-61
2022/04/18 02:24:40;;;;;;;23.67;15.65;;;7.10;99.90;;;;;;4763214;30;20218;-61
2022/04/18 02:27:09;;;;;;;24.15;15.38;;;7.90;99.90;;;;;;4763110;30;20036;-61
2022/04/18 02:29:35;;;;;;;25.20;16.08;;;6.70;99.90;;;;;;4763143;30;20199;-61
2022/04/18 02:34:46;;;;;;;28.27;17.27;;;7.20;99.90;;;;;;4763045;30;20051;-61
2022/04/18 02:37:12;;;;;;;27.02;17.48;;;;;;;;;;4763043;30;20040;-61
2022/04/18 02:39:37;;;;;;;28.98;16.85;;;7.40;99.90;;;;;;4762937;30;20068;-61
2022/04/18 02:42:03;;;;;;;26.65;17.17;;;7.10;99.90;;;;;;4762885;30;20036;-61
2022/04/18 02:44:30;;;;;;;28.20;17.02;;;;;;;;;;4747209;30;20043;-61
2022/04/18 02:46:55;;;;;;;28.30;17.58;;;7.20;99.90;;;;;;4762824;30;20044;-61
2022/04/18 02:49:21;;;;;;;29.38;17.38;;;6.40;99.90;;;;;;4762607;30;20074;-61
2022/04/18 02:51:47;;;;;;;33.40;18.98;;;;;;;;;;4762500;30;20063;-61
2022/04/18 02:54:13;;;;;;;33.97;19.92;;;;;;;;;;4762796;30;20061;-61
2022/04/18 02:56:39;;;;;;;36.17;21.77;;;7.10;99.90;;;;;;4762768;30;20061;-61
2022/04/18 02:59:05;;;;;;;38.72;22.58;;;;;;;;;;4762501;30;20426;-61
2022/04/18 03:01:31;;;;;;;39.45;22.20;;;7.20;99.90;;;;;;4762665;30;20207;-61
2022/04/18 03:03:57;;;;;;;38.50;21.15;;;7.10;99.90;;;;;;4762452;30;20048;-61
2022/04/18 03:06:23;;;;;;;32.80;19.17;;;;;;;;;;4762709;30;20100;-61
2022/04/18 03:08:48;;;;;;;33.60;19.20;;;6.90;99.90;;;;;;4762548;30;20047;-61
2022/04/18 03:11:14;;;;;;;30.38;17.98;;;;;;;;;;4762646;30;20188;-61
2022/04/18 03:13:46;;;;;;;30.63;17.38;;;6.90;99.90;;;;;;4762600;30;20044;-61
2022/04/18 03:16:13;;;;;;;25.45;16.65;;;6.90;99.90;;;;;;4746632;30;20036;-61
2022/04/18 03:18:39;;;;;;;30.45;16.92;;;6.80;99.90;;;;;;4746543;30;20349;-61
2022/04/18 03:21:05;;;;;;;26.70;16.48;;;;;;;;;;4762743;30;20048;-61
2022/04/18 03:23:32;;;;;;;29.67;16.95;;;6.80;99.90;;;;;;4764452;30;20032;-61
2022/04/18 03:25:58;;;;;;;30.70;17.02;;;;;;;;;;4766173;30;20039;-61
2022/04/18 03:28:25;;;;;;;23.65;16.05;;;6.70;96.60;;;;;;4749946;30;20040;-61
2022/04/18 03:30:51;;;;;;;22.23;15.55;;;6.70;99.90;;;;;;4765845;30;20040;-61
2022/04/18 03:33:17;;;;;;;21.45;14.68;;;;;;;;;;4766304;30;20086;-61
2022/04/18 03:39:50;;;;;;;22.40;14.30;;;6.70;99.90;;;;;;4765778;30;20318;-61
2022/04/18 03:41:14;;;;;;;19.13;13.10;;;;;;;;;;4765914;30;20162;-61
2022/04/18 03:43:40;;;;;;;24.67;14.48;;;6.60;99.90;;;;;;4765901;30;20040;-61
2022/04/18 19:42:59;;;;;;;8.25;3.30;;;;;;;;;;4831525;24;20081;-64
2022/04/18 19:45:25;;;;;;;6.75;3.40;;;15.00;63.00;;;;;;4770535;30;20142;-64
2022/04/18 19:47:51;;;;;;;4.78;3.08;;;;;;;;;;4786649;30;20150;-63
2022/04/18 19:50:17;;;;;;;7.00;3.40;;;;;;;;;;4786786;30;20039;-63
2022/04/18 19:52:44;;;;;;;9.25;3.53;;;;;;;;;;4786599;30;20043;-64
2022/04/18 19:55:11;;;;;;;5.25;3.40;;;;;;;;;;4785876;30;20437;-63
2022/04/18 19:57:40;;;;;;;11.43;3.60;;;14.70;46.80;;;;;;4770695;30;20051;-63
2022/04/18 20:00:09;;;;;;;9.75;3.75;;;14.60;47.20;;;;;;4785179;30;20447;-63
2022/04/18 20:02:35;;;;;;;7.40;3.50;;;14.60;57.50;;;;;;4768582;30;20170;-63
2022/04/18 20:05:02;;;;;;;6.47;3.80;;;14.50;61.80;;;;;;4785485;29;20450;-63
2022/04/18 20:07:27;;;;;;;7.60;3.95;;;14.40;62.00;;;;;;4771467;30;20738;-64
2022/04/18 20:09:54;;;;;;;8.02;3.60;;;14.40;60.10;;;;;;4787945;30;20075;-63
2022/04/18 20:12:20;;;;;;;5.20;3.30;;;;;;;;;;4771925;30;20435;-64
2022/04/18 20:14:46;;;;;;;5.40;3.70;;;;;;;;;;4771901;30;20047;-63
2022/04/18 20:17:12;;;;;;;5.05;3.67;;;14.30;62.20;;;;;;4772687;30;20511;-63
2022/04/18 20:19:38;;;;;;;5.07;3.35;;;14.20;58.70;;;;;;4790110;30;20071;-63
2022/04/18 20:22:05;;;;;;;5.28;3.60;;;14.10;62.90;;;;;;4773147;30;20536;-63
2022/04/18 20:24:31;;;;;;;8.80;3.83;;;14.20;56.20;;;;;;4773715;30;20400;-63
2022/04/18 20:26:58;;;;;;;10.90;3.50;;;13.80;50.20;;;;;;4789335;30;20399;-63
2022/04/18 20:29:24;;;;;;;6.50;3.40;;;14.00;48.70;;;;;;4789236;30;20120;-63
2022/04/18 20:31:51;;;;;;;5.15;3.60;;;;;;;;;;4773718;30;20142;-63
2022/04/18 20:34:17;;;;;;;6.55;3.67;;;13.90;48.80;;;;;;4772986;30;20047;-63
2022/04/18 20:36:43;;;;;;;6.03;3.58;;;13.90;63.90;;;;;;4788471;30;20084;-63
2022/04/18 20:39:09;;;;;;;5.47;3.88;;;14.40;60.70;;;;;;4788856;30;20073;-63
2022/04/18 20:41:36;;;;;;;7.18;3.83;;;;;;;;;;4789145;30;20043;-62
2022/04/18 20:44:02;;;;;;;7.28;4.55;;;13.70;49.30;;;;;;4789132;30;20055;-63
2022/04/18 20:46:28;;;;;;;9.27;4.55;;;13.80;63.90;;;;;;4758085;30;20062;-63
2022/04/18 20:48:54;;;;;;;6.18;4.10;;;;;;;;;;4788510;30;20051;-63
2022/04/18 20:51:20;;;;;;;13.18;4.43;;;;;;;;;;4763410;30;20058;-63
2022/04/18 20:59:16;;;;;;;7.82;4.97;;;;;;;;;;4769172;30;20094;-63
2022/04/18 21:01:42;;;;;;;9.35;5.13;;;13.30;64.90;;;;;;4786296;29;20138;-63
2022/04/18 21:04:09;;;;;;;10.85;5.35;;;13.30;50.70;;;;;;4786209;30;20126;-62
2022/04/18 21:06:43;;;;;;;10.20;5.40;;;13.30;51.00;;;;;;4786935;30;20102;-62
2022/04/18 21:09:09;;;;;;;7.53;5.13;;;;;;;;;;4771408;30;20461;-63
2022/04/18 21:11:35;;;;;;;9.15;5.50;;;;;;;;;;4787627;30;20059;-63
2022/04/18 21:14:06;;;;;;;9.48;5.60;;;13.40;67.10;;;;;;4787184;30;20043;-63
2022/04/18 21:16:32;;;;;;;8.10;4.97;;;12.90;67.00;;;;;;4801749;29;20047;-62
2022/04/18 21:18:58;;;;;;;7.85;5.10;;;13.00;67.30;;;;;;4795542;29;20471;-62
2022/04/18 21:21:24;;;;;;;7.65;4.97;;;;;;;;;;4786838;30;20078;-62
2022/04/18 21:23:50;;;;;;;6.43;4.60;;;;;;;;;;4771528;30;20054;-62
2022/04/18 21:26:16;;;;;;;9.75;5.00;;;13.00;68.10;;;;;;4771283;30;20462;-63
2022/04/18 21:28:42;;;;;;;8.32;4.85;;;13.00;68.20;;;;;;4786322;30;20138;-63
2022/04/18 21:31:17;;;;;;;8.57;4.88;;;13.60;56.30;;;;;;4786212;30;20047;-63
2022/04/18 21:33:43;;;;;;;7.57;4.88;;;12.70;69.10;;;;;;4787445;30;20055;-63
2022/04/18 21:36:10;;;;;;;6.45;4.55;;;12.80;69.70;;;;;;4786927;30;20039;-63
2022/04/18 21:38:36;;;;;;;7.82;4.30;;;12.80;70.70;;;;;;4771428;30;20495;-63
2022/04/18 21:41:03;;;;;;;8.00;4.50;;;12.50;54.30;;;;;;4787514;30;20376;-63
2022/04/18 21:43:31;;;;;;;6.18;4.22;;;12.40;70.30;;;;;;4785589;30;20067;-63
2022/04/18 21:45:57;;;;;;;11.25;4.50;;;12.30;64.40;;;;;;4787447;30;20055;-63
2022/04/18 21:48:23;;;;;;;6.20;4.70;;;12.40;71.50;;;;;;4771101;30;20055;-64
2022/04/18 21:50:50;;;;;;;9.07;4.60;;;12.20;55.30;;;;;;4786871;30;20069;-63
2022/04/18 21:53:16;;;;;;;6.03;4.20;;;11.60;56.30;;;;;;4786674;30;20047;-63
2022/04/18 21:55:44;;;;;;;6.22;4.70;;;12.10;55.90;;;;;;4771342;30;20051;-63
2022/04/18 21:58:10;;;;;;;7.55;4.65;;;12.20;66.40;;;;;;4785478;30;20551;-63
2022/04/18 22:00:39;;;;;;;14.77;4.70;;;12.00;56.30;;;;;;4787308;30;20206;-63
2022/04/18 22:03:06;;;;;;;11.57;5.00;;;;;;;;;;4787046;30;20054;-63
2022/04/18 22:05:34;;;;;;;6.75;4.97;;;12.10;59.50;;;;;;4770216;30;20123;-64
2022/04/18 22:08:00;;;;;;;7.70;4.85;;;11.70;74.90;;;;;;4770678;30;20051;-63
2022/04/18 22:10:26;;;;;;;7.72;4.70;;;11.80;73.10;;;;;;4770791;30;20054;-63
2022/04/18 22:12:53;;;;;;;7.38;4.90;;;11.80;58.80;;;;;;4770635;30;20051;-63
2022/04/18 22:15:19;;;;;;;9.27;5.20;;;;;;;;;;4770225;30;20050;-64
2022/04/18 22:17:44;;;;;;;6.68;4.57;;;11.70;76.20;;;;;;4786842;30;20126;-63
2022/04/18 22:25:40;;;;;;;10.60;5.10;;;;;;;;;;4770786;30;20055;-62
2022/04/18 22:28:07;;;;;;;7.28;5.00;;;10.90;78.10;;;;;;4785868;29;20112;-63
2022/04/18 22:30:33;;;;;;;7.82;5.10;;;11.40;74.80;;;;;;4786685;30;20051;-62
2022/04/18 22:32:59;;;;;;;7.68;5.47;;;;;;;;;;4786053;30;20047;-62
2022/04/18 22:35:25;;;;;;;8.48;4.78;;;11.20;81.20;;;;;;4755691;30;20083;-63
2022/04/18 22:37:51;;;;;;;9.02;5.00;;;;;;;;;;4770441;30;20077;-63
2022/04/18 22:40:17;;;;;;;9.95;5.20;;;11.10;82.10;;;;;;4770603;30;20050;-63
2022/04/18 22:42:47;;;;;;;9.02;4.93;;;11.00;65.30;;;;;;4786094;30;20427;-63
2022/04/18 22:45:13;;;;;;;7.90;5.18;;;;;;;;;;4786282;30;20090;-62
2022/04/18 22:47:40;;;;;;;7.28;4.90;;;;;;;;;;4769772;30;20047;-62
2022/04/18 22:50:08;;;;;;;8.90;5.05;;;11.00;86.50;;;;;;4786525;30;20047;-63
2022/04/18 22:52:34;;;;;;;7.50;4.90;;;10.70;69.50;;;;;;4786065;30;20067;-63
2022/04/18 22:55:00;;;;;;;11.50;5.00;;;;;;;;;;4784859;30;20100;-62
2022/04/18 22:57:26;;;;;;;8.48;5.00;;;10.70;90.30;;;;;;4785759;30;20387;-63
2022/04/18 22:59:52;;;;;;;7.90;4.80;;;10.20;90.70;;;;;;4770153;30;20439;-63
2022/04/18 23:02:20;;;;;;;8.07;5.10;;;11.20;91.60;;;;;;4769314;30;20051;-63
2022/04/18 23:07:41;;;;;;;10.75;5.57;;;;;;;;;;4712933;30;20139;-63
2022/04/18 23:10:09;;;;;;;8.80;5.78;;;10.20;83.30;;;;;;4712934;30;20045;-63
2022/04/18 23:12:36;;;;;;;7.45;5.05;;;;;;;;;;4698905;30;20640;-63
2022/04/18 23:15:03;;;;;;;9.32;5.78;;;9.70;94.60;;;;;;4713179;30;20620;-63
2022/04/18 23:17:30;;;;;;;10.20;5.68;;;;;;;;;;4712411;30;20092;-62
2022/04/18 23:19:56;;;;;;;10.32;6.53;;;;;;;;;;4684624;30;20575;-62
2022/04/18 23:22:24;;;;;;;9.30;5.70;;;;;;;;;;4712584;30;20131;-62
2022/04/18 23:24:50;;;;;;;8.65;6.30;;;10.80;96.40;;;;;;4713350;30;20080;-63
2022/04/18 23:27:16;;;;;;;11.25;6.38;;;10.00;96.60;;;;;;4712648;30;20498;-63
2022/04/18 23:29:42;;;;;;;9.35;6.25;;;;;;;;;;4698419;30;20151;-62
2022/04/18 23:32:08;;;;;;;8.50;6.20;;;;;;;;;;4712438;30;20122;-62
2022/04/18 23:34:34;;;;;;;8.43;6.07;;;;;;;;;;4713390;30;20044;-62
2022/04/18 23:37:00;;;;;;;9.23;6.20;;;;;;;;;;4712866;30;20317;-63
2022/04/18 23:41:46;;;;;;;10.70;6.32;;;9.70;97.60;;;;;;4712625;30;20106;-63
2022/04/18 23:42:12;;;;;;;11.73;6.85;;;;;;;;;;4716230;30;20122;-63
2022/04/18 23:44:38;;;;;;;12.50;6.55;;;;;;;;;;4748994;30;20062;-62
2022/04/18 23:47:06;;;;;;;9.95;5.90;;;;;;;;;;4772799;30;20119;-63
2022/04/18 23:49:33;;;;;;;9.38;5.80;;;;;;;;;;4758287;30;20065;-63
2022/04/18 23:51:59;;;;;;;10.43;6.00;;;;;;;;;;4773006;30;20530;-63
2022/04/18 23:54:25;;;;;;;9.60;6.63;;;;;;;;;;4772809;30;20074;-63
2022/04/18 23:56:51;;;;;;;10.52;6.40;;;9.80;99.90;;;;;;4788439;24;20068;-57
2022/04/18 23:59:18;;;;;;;8.90;6.10;;;;;;;;;;4783995;30;20051;-58
